Time,TemperatureF,DewpointF,PressureIn,WindDirection,WindDirectionDegrees,WindSpeedMPH,WindSpeedGustMPH,Humidity,HourlyPrecipIn,Conditions,Clouds,dailyrainin,SolarRadiationWatts/m^2,SoftwareType,DateUTC
2013-08-31 09:20:00,62.1,46.2,29.94,SSW,208,8.0,8.0,56,0.00,,,0.00,396,Wunderground v.1.15,2013-08-31 15:20:00,
2013-08-31 09:24:00,62.9,47.0,29.94,SSW,197,8.0,11.0,56,0.00,,,0.00,404,Wunderground v.1.15,2013-08-31 15:24:00,
2013-08-31 09:26:00,63.3,46.4,29.94,SSW,202,8.0,11.0,54,0.00,,,0.00,413,Wunderground v.1.15,2013-08-31 15:26:00,
2013-08-31 09:28:00,63.7,46.7,29.93,South,185,8.0,11.0,54,0.00,,,0.00,418,Wunderground v.1.15,2013-08-31 15:28:00,
2013-08-31 09:34:00,64.9,46.8,29.93,SSW,196,7.0,7.0,52,0.00,,,0.00,438,Wunderground v.1.15,2013-08-31 15:34:00,
2013-08-31 09:40:00,66.1,46.9,29.94,SSW,192,7.0,9.0,50,0.00,,,0.00,455,Wunderground v.1.15,2013-08-31 15:40:00,
2013-08-31 09:46:00,67.1,46.2,29.93,SSW,196,6.0,9.0,47,0.00,,,0.00,473,Wunderground v.1.15,2013-08-31 15:46:00,
2013-08-31 09:52:00,68.0,47.0,29.94,South,171,7.0,7.0,47,0.00,,,0.00,490,Wunderground v.1.15,2013-08-31 15:52:00,
2013-08-31 09:58:00,68.8,46.0,29.93,SSW,196,7.0,7.0,44,0.00,,,0.00,508,Wunderground v.1.15,2013-08-31 15:58:00,
2013-08-31 10:04:00,69.7,46.8,29.93,SSW,203,7.0,7.0,44,0.00,,,0.00,524,Wunderground v.1.15,2013-08-31 16:04:00,
2013-08-31 10:10:00,70.4,46.8,29.92,SW,221,7.0,7.0,43,0.00,,,0.00,540,Wunderground v.1.15,2013-08-31 16:10:00,
2013-08-31 10:16:00,71.0,46.7,29.92,SSW,197,7.0,9.0,42,0.00,,,0.00,557,Wunderground v.1.15,2013-08-31 16:16:00,
2013-08-31 10:22:00,71.7,48.0,29.92,South,184,6.0,6.0,43,0.00,,,0.00,575,Wunderground v.1.15,2013-08-31 16:22:00,
2013-08-31 10:28:00,72.4,48.6,29.92,SSE,158,4.0,6.0,43,0.00,,,0.00,589,Wunderground v.1.15,2013-08-31 16:28:00,
2013-08-31 10:34:00,73.1,48.0,29.92,SSE,150,5.0,8.0,41,0.00,,,0.00,598,Wunderground v.1.15,2013-08-31 16:34:00,
2013-08-31 10:40:00,73.8,46.6,29.92,SSW,213,5.0,5.0,38,0.00,,,0.00,619,Wunderground v.1.15,2013-08-31 16:40:00,
2013-08-31 10:46:00,74.4,47.1,29.92,SW,217,4.0,6.0,38,0.00,,,0.00,636,Wunderground v.1.15,2013-08-31 16:46:00,
2013-08-31 10:54:00,75.0,47.0,29.91,SSW,210,5.0,5.0,37,0.00,,,0.00,659,Wunderground v.1.15,2013-08-31 16:54:00,
2013-08-31 11:00:00,75.4,47.3,29.91,SSW,206,4.0,4.0,37,0.00,,,0.00,670,Wunderground v.1.15,2013-08-31 17:00:00,
2013-08-31 11:06:00,75.9,47.0,29.91,SSW,192,4.0,6.0,36,0.00,,,0.00,682,Wunderground v.1.15,2013-08-31 17:06:00,
2013-08-31 11:12:00,76.4,47.5,29.91,SSW,198,5.0,10.0,36,0.00,,,0.00,693,Wunderground v.1.15,2013-08-31 17:12:00,
2013-08-31 11:18:00,77.0,45.7,29.91,South,184,4.0,10.0,33,0.00,,,0.00,705,Wunderground v.1.15,2013-08-31 17:18:00,
2013-08-31 11:24:00,77.6,46.2,29.91,SSE,165,3.0,4.0,33,0.00,,,0.00,715,Wunderground v.1.15,2013-08-31 17:24:00,
2013-08-31 11:30:00,78.2,46.7,29.91,South,184,4.0,4.0,33,0.00,,,0.00,724,Wunderground v.1.15,2013-08-31 17:30:00,
2013-08-31 11:36:00,78.8,46.4,29.90,SSE,164,4.0,6.0,32,0.00,,,0.00,737,Wunderground v.1.15,2013-08-31 17:36:00,
2013-08-31 11:42:00,79.3,45.2,29.90,SSW,199,4.0,4.0,30,0.00,,,0.00,749,Wunderground v.1.15,2013-08-31 17:42:00,
2013-08-31 11:48:00,80.1,46.7,29.90,SSW,211,2.0,4.0,31,0.00,,,0.00,754,Wunderground v.1.15,2013-08-31 17:48:00,
2013-08-31 11:54:00,80.5,44.4,29.90,SSW,209,1.0,2.0,28,0.00,,,0.00,763,Wunderground v.1.15,2013-08-31 17:54:00,
2013-08-31 12:00:00,81.1,45.8,29.90,South,183,2.0,2.0,29,0.00,,,0.00,780,Wunderground v.1.15,2013-08-31 18:00:00,
2013-08-31 12:06:00,81.6,49.7,29.90,North,5,3.0,4.0,33,0.00,,,0.00,793,Wunderground v.1.15,2013-08-31 18:06:00,
2013-08-31 12:12:00,81.6,47.2,29.90,NNW,331,5.0,8.0,30,0.00,,,0.00,791,Wunderground v.1.15,2013-08-31 18:12:00,
2013-08-31 12:18:00,81.5,46.2,29.89,North,5,6.0,8.0,29,0.00,,,0.00,812,Wunderground v.1.15,2013-08-31 18:18:00,
2013-08-31 12:24:00,81.2,46.8,29.89,North,355,4.0,6.0,30,0.00,,,0.00,805,Wunderground v.1.15,2013-08-31 18:24:00,
2013-08-31 12:30:00,81.0,47.5,29.89,NNE,24,3.0,5.0,31,0.00,,,0.00,830,Wunderground v.1.15,2013-08-31 18:30:00,
2013-08-31 12:36:00,80.8,49.8,29.88,North,5,4.0,5.0,34,0.00,,,0.00,823,Wunderground v.1.15,2013-08-31 18:36:00,
2013-08-31 12:42:00,81.1,48.4,29.89,NE,49,4.0,7.0,32,0.00,,,0.00,823,Wunderground v.1.15,2013-08-31 18:42:00,
2013-08-31 12:48:00,80.9,48.3,29.88,NNE,26,4.0,7.0,32,0.00,,,0.00,830,Wunderground v.1.15,2013-08-31 18:48:00,
2013-08-31 12:54:00,81.1,45.8,29.88,ENE,67,2.0,4.0,29,0.00,,,0.00,837,Wunderground v.1.15,2013-08-31 18:54:00,
2013-08-31 13:00:00,81.3,47.8,29.88,NNE,22,2.0,5.0,31,0.00,,,0.00,838,Wunderground v.1.15,2013-08-31 19:00:00,
2013-08-31 13:06:00,81.6,48.0,29.87,North,5,4.0,8.0,31,0.00,,,0.00,840,Wunderground v.1.15,2013-08-31 19:06:00,
2013-08-31 13:12:00,81.8,49.1,29.88,NNE,32,5.0,7.0,32,0.00,,,0.00,840,Wunderground v.1.15,2013-08-31 19:12:00,
2013-08-31 13:18:00,81.7,48.1,29.87,North,5,5.0,7.0,31,0.00,,,0.00,844,Wunderground v.1.15,2013-08-31 19:18:00,
2013-08-31 13:24:00,81.8,48.2,29.87,North,360,4.0,5.0,31,0.00,,,0.00,849,Wunderground v.1.15,2013-08-31 19:24:00,
2013-08-31 13:30:00,82.2,47.7,29.87,NE,42,4.0,4.0,30,0.00,,,0.00,853,Wunderground v.1.15,2013-08-31 19:30:00,
2013-08-31 13:38:00,82.0,46.6,29.87,NNE,30,4.0,4.0,29,0.00,,,0.00,849,Wunderground v.1.15,2013-08-31 19:38:00,
2013-08-31 13:44:00,82.0,46.6,29.87,North,9,4.0,6.0,29,0.00,,,0.00,847,Wunderground v.1.15,2013-08-31 19:44:00,
2013-08-31 13:52:00,82.5,45.1,29.86,NE,44,5.0,5.0,27,0.00,,,0.00,847,Wunderground v.1.15,2013-08-31 19:52:00,
2013-08-31 13:58:00,82.7,45.3,29.86,NE,55,4.0,9.0,27,0.00,,,0.00,846,Wunderground v.1.15,2013-08-31 19:58:00,
2013-08-31 14:04:00,83.1,45.7,29.86,NNE,32,2.0,3.0,27,0.00,,,0.00,844,Wunderground v.1.15,2013-08-31 20:04:00,
2013-08-31 14:10:00,83.5,47.0,29.86,North,5,2.0,9.0,28,0.00,,,0.00,842,Wunderground v.1.15,2013-08-31 20:10:00,
2013-08-31 14:18:00,84.2,47.6,29.86,NW,326,7.0,7.0,28,0.00,,,0.00,840,Wunderground v.1.15,2013-08-31 20:18:00,
2013-08-31 14:24:00,84.5,45.8,29.86,NNW,346,6.0,8.0,26,0.00,,,0.00,831,Wunderground v.1.15,2013-08-31 20:24:00,
2013-08-31 14:32:00,84.7,48.9,29.86,North,355,5.0,9.0,29,0.00,,,0.00,831,Wunderground v.1.15,2013-08-31 20:32:00,
2013-08-31 14:38:00,84.7,48.9,29.86,NE,44,5.0,9.0,29,0.00,,,0.00,823,Wunderground v.1.15,2013-08-31 20:38:00,
2013-08-31 14:44:00,84.2,47.6,29.85,NNE,24,4.0,10.0,28,0.00,,,0.00,817,Wunderground v.1.15,2013-08-31 20:44:00,
2013-08-31 14:50:00,83.9,47.3,29.85,NNE,27,4.0,10.0,28,0.00,,,0.00,810,Wunderground v.1.15,2013-08-31 20:50:00,
2013-08-31 14:56:00,83.9,47.3,29.85,North,11,4.0,8.0,28,0.00,,,0.00,805,Wunderground v.1.15,2013-08-31 20:56:00,
2013-08-31 15:02:00,84.0,49.2,29.85,NNE,19,5.0,6.0,30,0.00,,,0.00,800,Wunderground v.1.15,2013-08-31 21:02:00,
2013-08-31 15:08:00,84.0,46.4,29.85,NE,54,4.0,6.0,27,0.00,,,0.00,793,Wunderground v.1.15,2013-08-31 21:08:00,
2013-08-31 15:14:00,83.9,46.3,29.84,NE,37,4.0,6.0,27,0.00,,,0.00,784,Wunderground v.1.15,2013-08-31 21:14:00,
2013-08-31 15:20:00,84.2,49.4,29.84,NNE,16,4.0,4.0,30,0.00,,,0.00,777,Wunderground v.1.15,2013-08-31 21:20:00,
2013-08-31 15:26:00,84.6,47.9,29.84,North,360,5.0,9.0,28,0.00,,,0.00,770,Wunderground v.1.15,2013-08-31 21:26:00,
2013-08-31 15:32:00,85.0,47.3,29.84,NNE,17,7.0,7.0,27,0.00,,,0.00,759,Wunderground v.1.15,2013-08-31 21:32:00,
2013-08-31 15:42:00,84.7,49.8,29.84,North,9,7.0,7.0,30,0.00,,,0.00,738,Wunderground v.1.15,2013-08-31 21:42:00,
2013-08-31 15:48:00,84.8,48.1,29.83,NE,34,6.0,8.0,28,0.00,,,0.00,731,Wunderground v.1.15,2013-08-31 21:48:00,
2013-08-31 15:54:00,84.4,49.6,29.83,North,9,6.0,6.0,30,0.00,,,0.00,719,Wunderground v.1.15,2013-08-31 21:54:00,
2013-08-31 16:00:00,84.1,46.5,29.83,NNE,27,6.0,6.0,27,0.00,,,0.00,703,Wunderground v.1.15,2013-08-31 22:00:00,
2013-08-31 16:08:00,84.1,48.4,29.83,NE,42,4.0,6.0,29,0.00,,,0.00,689,Wunderground v.1.15,2013-08-31 22:08:00,
2013-08-31 16:14:00,84.2,48.5,29.83,NE,40,6.0,8.0,29,0.00,,,0.00,675,Wunderground v.1.15,2013-08-31 22:14:00,
2013-08-31 16:20:00,84.3,48.6,29.83,NNE,17,7.0,7.0,29,0.00,,,0.00,664,Wunderground v.1.15,2013-08-31 22:20:00,
2013-08-31 16:26:00,84.4,46.8,29.82,NNE,32,6.0,9.0,27,0.00,,,0.00,649,Wunderground v.1.15,2013-08-31 22:26:00,
2013-08-31 16:34:00,84.4,48.7,29.83,North,11,6.0,7.0,29,0.00,,,0.00,628,Wunderground v.1.15,2013-08-31 22:34:00,
2013-08-31 16:40:00,84.5,47.8,29.82,North,360,5.0,6.0,28,0.00,,,0.00,613,Wunderground v.1.15,2013-08-31 22:40:00,
2013-08-31 16:48:00,84.5,47.8,29.82,NNE,13,5.0,6.0,28,0.00,,,0.00,592,Wunderground v.1.15,2013-08-31 22:48:00,
2013-08-31 16:54:00,84.5,49.7,29.82,NNE,17,5.0,7.0,30,0.00,,,0.00,578,Wunderground v.1.15,2013-08-31 22:54:00,
2013-08-31 17:00:00,84.5,48.8,29.82,NNE,20,5.0,5.0,29,0.00,,,0.00,563,Wunderground v.1.15,2013-08-31 23:00:00,
2013-08-31 17:06:00,84.5,47.8,29.82,NNE,21,5.0,5.0,28,0.00,,,0.00,547,Wunderground v.1.15,2013-08-31 23:06:00,
2013-08-31 17:12:00,84.4,48.7,29.82,NNE,13,5.0,5.0,29,0.00,,,0.00,529,Wunderground v.1.15,2013-08-31 23:12:00,
2013-08-31 17:18:00,84.4,48.7,29.81,North,355,6.0,10.0,29,0.00,,,0.00,512,Wunderground v.1.15,2013-08-31 23:18:00,
2013-08-31 17:24:00,84.3,48.6,29.82,North,5,6.0,6.0,29,0.00,,,0.00,496,Wunderground v.1.15,2013-08-31 23:24:00,
2013-08-31 17:30:00,84.0,47.4,29.81,NNE,16,6.0,7.0,28,0.00,,,0.00,475,Wunderground v.1.15,2013-08-31 23:30:00,
2013-08-31 17:36:00,83.7,46.2,29.81,North,355,7.0,9.0,27,0.00,,,0.00,457,Wunderground v.1.15,2013-08-31 23:36:00,
2013-08-31 17:42:00,83.5,46.0,29.81,North,5,7.0,8.0,27,0.00,,,0.00,439,Wunderground v.1.15,2013-08-31 23:42:00,
2013-08-31 17:48:00,83.2,46.7,29.81,NNE,27,6.0,8.0,28,0.00,,,0.00,420,Wunderground v.1.15,2013-08-31 23:48:00,
2013-08-31 17:54:00,83.0,46.5,29.81,NNE,24,4.0,5.0,28,0.00,,,0.00,399,Wunderground v.1.15,2013-08-31 23:54:00,
2013-08-31 18:00:00,82.9,48.3,29.81,NNE,30,4.0,4.0,30,0.00,,,0.00,380,Wunderground v.1.15,2013-09-01 00:00:00,
2013-08-31 18:06:00,82.7,47.2,29.81,NNE,31,4.0,4.0,29,0.00,,,0.00,362,Wunderground v.1.15,2013-09-01 00:06:00,
2013-08-31 18:12:00,82.3,48.6,29.81,NE,38,4.0,4.0,31,0.00,,,0.00,345,Wunderground v.1.15,2013-09-01 00:12:00,
2013-08-31 18:18:00,81.9,48.3,29.81,NNE,33,4.0,6.0,31,0.00,,,0.00,327,Wunderground v.1.15,2013-09-01 00:18:00,
2013-08-31 18:24:00,81.7,49.8,29.81,North,11,4.0,5.0,33,0.00,,,0.00,309,Wunderground v.1.15,2013-09-01 00:24:00,
2013-08-31 18:30:00,81.5,47.1,29.81,North,5,5.0,5.0,30,0.00,,,0.00,290,Wunderground v.1.15,2013-09-01 00:30:00,
2013-08-31 18:36:00,81.2,47.7,29.81,North,360,5.0,5.0,31,0.00,,,0.00,271,Wunderground v.1.15,2013-09-01 00:36:00,
2013-08-31 18:42:00,80.9,47.4,29.81,NNE,15,4.0,5.0,31,0.00,,,0.00,251,Wunderground v.1.15,2013-09-01 00:42:00,
2013-08-31 18:48:00,80.5,47.1,29.81,NNE,13,5.0,5.0,31,0.00,,,0.00,230,Wunderground v.1.15,2013-09-01 00:48:00,
2013-08-31 18:54:00,80.2,46.8,29.81,NNE,18,3.0,5.0,31,0.00,,,0.00,207,Wunderground v.1.15,2013-09-01 00:54:00,
2013-08-31 19:00:00,79.9,47.4,29.81,NNE,17,2.0,2.0,32,0.00,,,0.00,185,Wunderground v.1.15,2013-09-01 01:00:00,
2013-08-31 19:06:00,79.6,48.8,29.81,NNE,19,3.0,4.0,34,0.00,,,0.00,162,Wunderground v.1.15,2013-09-01 01:06:00,
2013-08-31 19:12:00,79.2,48.4,29.81,NNE,22,3.0,3.0,34,0.00,,,0.00,139,Wunderground v.1.15,2013-09-01 01:12:00,
2013-08-31 19:18:00,78.7,49.5,29.81,NNE,22,2.0,3.0,36,0.00,,,0.00,118,Wunderground v.1.15,2013-09-01 01:18:00,
2013-08-31 19:24:00,78.3,50.6,29.81,NNE,22,0.0,1.0,38,0.00,,,0.00,95,Wunderground v.1.15,2013-09-01 01:24:00,
2013-08-31 19:30:00,77.9,50.9,29.81,NNE,22,0.0,0.0,39,0.00,,,0.00,76,Wunderground v.1.15,2013-09-01 01:30:00,
2013-08-31 19:36:00,77.3,51.8,29.81,NNE,22,0.0,0.0,41,0.00,,,0.00,42,Wunderground v.1.15,2013-09-01 01:36:00,
2013-08-31 19:42:00,76.5,51.7,29.81,NNE,22,0.0,0.0,42,0.00,,,0.00,25,Wunderground v.1.15,2013-09-01 01:42:00,
2013-08-31 19:48:00,75.8,51.7,29.81,NNE,22,0.0,0.0,43,0.00,,,0.00,16,Wunderground v.1.15,2013-09-01 01:48:00,
2013-08-31 19:54:00,74.8,50.8,29.81,NNE,22,0.0,0.0,43,0.00,,,0.00,12,Wunderground v.1.15,2013-09-01 01:54:00,
2013-08-31 20:00:00,73.7,50.4,29.81,NNE,22,0.0,0.0,44,0.00,,,0.00,9,Wunderground v.1.15,2013-09-01 02:00:00,
2013-08-31 20:06:00,72.8,50.2,29.81,NNE,22,0.0,0.0,45,0.00,,,0.00,7,Wunderground v.1.15,2013-09-01 02:06:00,
2013-08-31 20:12:00,72.0,49.5,29.81,NNE,22,0.0,0.0,45,0.00,,,0.00,5,Wunderground v.1.15,2013-09-01 02:12:00,
2013-08-31 20:18:00,71.1,48.1,29.82,NNE,22,0.0,0.0,44,0.00,,,0.00,0,Wunderground v.1.15,2013-09-01 02:18:00,
2013-08-31 20:24:00,70.1,49.5,29.82,NNE,22,0.0,0.0,48,0.00,,,0.00,0,Wunderground v.1.15,2013-09-01 02:24:00,
2013-08-31 20:30:00,69.2,49.8,29.82,NNE,22,0.0,0.0,50,0.00,,,0.00,0,Wunderground v.1.15,2013-09-01 02:30:00,
2013-08-31 20:42:00,67.2,46.3,29.83,NNE,22,0.0,0.0,47,0.00,,,0.00,0,Wunderground v.1.15,2013-09-01 02:42:00,
2013-08-31 20:48:00,66.1,44.7,29.83,NNE,22,0.0,0.0,46,0.00,,,0.00,0,Wunderground v.1.15,2013-09-01 02:48:00,
2013-08-31 20:54:00,65.0,46.4,29.83,NNE,22,0.0,0.0,51,0.00,,,0.00,0,Wunderground v.1.15,2013-09-01 02:54:00,
2013-08-31 21:00:00,63.9,45.9,29.83,NNE,22,0.0,0.0,52,0.00,,,0.00,0,Wunderground v.1.15,2013-09-01 03:00:00,
2013-08-31 21:06:00,62.9,45.0,29.84,NNE,22,0.0,0.0,52,0.00,,,0.00,0,Wunderground v.1.15,2013-09-01 03:06:00,
2013-08-31 21:12:00,62.2,44.9,29.83,NNE,22,0.0,0.0,53,0.00,,,0.00,0,Wunderground v.1.15,2013-09-01 03:12:00,
2013-08-31 21:18:00,61.5,43.7,29.84,NNE,22,0.0,0.0,52,0.00,,,0.00,0,Wunderground v.1.15,2013-09-01 03:18:00,
2013-08-31 21:24:00,60.9,44.1,29.84,NNE,22,0.0,0.0,54,0.00,,,0.00,0,Wunderground v.1.15,2013-09-01 03:24:00,
2013-08-31 21:30:00,60.4,45.1,29.84,NNE,22,0.0,0.0,57,0.00,,,0.00,0,Wunderground v.1.15,2013-09-01 03:30:00,
2013-08-31 21:36:00,59.8,43.1,29.84,NNE,22,0.0,0.0,54,0.00,,,0.00,0,Wunderground v.1.15,2013-09-01 03:36:00,
2013-08-31 21:42:00,58.9,41.3,29.84,NNW,331,0.0,0.0,52,0.00,,,0.00,0,Wunderground v.1.15,2013-09-01 03:42:00,
2013-08-31 21:48:00,58.5,40.9,29.85,NNW,331,0.0,0.0,52,0.00,,,0.00,0,Wunderground v.1.15,2013-09-01 03:48:00,
2013-08-31 21:54:00,58.3,40.2,29.84,WNW,302,0.0,3.0,51,0.00,,,0.00,0,Wunderground v.1.15,2013-09-01 03:54:00,
2013-08-31 22:00:00,58.2,40.1,29.85,SSW,211,2.0,3.0,51,0.00,,,0.00,0,Wunderground v.1.15,2013-09-01 04:00:00,
2013-08-31 22:02:00,58.2,40.1,29.85,SSW,210,3.0,3.0,51,0.00,,,0.00,0,Wunderground v.1.15,2013-09-01 04:02:00,
2013-08-31 22:04:00,58.3,40.2,29.85,SSW,210,3.0,3.0,51,0.00,,,0.00,0,Wunderground v.1.15,2013-09-01 04:04:00,
2013-08-31 22:06:00,58.3,40.2,29.85,SSW,210,3.0,4.0,51,0.00,,,0.00,0,Wunderground v.1.15,2013-09-01 04:06:00,
2013-08-31 22:08:00,58.3,40.2,29.85,SSW,212,3.0,4.0,51,0.00,,,0.00,0,Wunderground v.1.15,2013-09-01 04:08:00,
2013-08-31 22:14:00,58.4,40.3,29.85,SSW,211,2.0,3.0,51,0.00,,,0.00,0,Wunderground v.1.15,2013-09-01 04:14:00,
2013-08-31 22:20:00,58.5,40.4,29.85,SSW,211,0.0,0.0,51,0.00,,,0.00,0,Wunderground v.1.15,2013-09-01 04:20:00,
2013-08-31 22:26:00,58.6,41.0,29.86,SSW,211,0.0,0.0,52,0.00,,,0.00,0,Wunderground v.1.15,2013-09-01 04:26:00,
2013-08-31 22:32:00,58.5,40.4,29.86,SSW,211,0.0,0.0,51,0.00,,,0.00,0,Wunderground v.1.15,2013-09-01 04:32:00,
2013-08-31 22:38:00,58.4,40.3,29.86,SSW,211,0.0,0.0,51,0.00,,,0.00,0,Wunderground v.1.15,2013-09-01 04:38:00,
2013-08-31 22:44:00,58.2,40.1,29.86,SSW,211,0.0,0.0,51,0.00,,,0.00,0,Wunderground v.1.15,2013-09-01 04:44:00,
2013-08-31 22:50:00,58.0,40.5,29.86,SSW,213,0.0,4.0,52,0.00,,,0.00,0,Wunderground v.1.15,2013-09-01 04:50:00,
2013-08-31 22:56:00,57.7,41.2,29.86,SW,217,1.0,4.0,54,0.00,,,0.00,0,Wunderground v.1.15,2013-09-01 04:56:00,
2013-08-31 23:02:00,57.3,41.7,29.86,SW,231,2.0,3.0,56,0.00,,,0.00,0,Wunderground v.1.15,2013-09-01 05:02:00,
2013-08-31 23:08:00,56.8,42.2,29.86,SW,231,3.0,3.0,58,0.00,,,0.00,0,Wunderground v.1.15,2013-09-01 05:08:00,
2013-08-31 23:14:00,56.3,41.7,29.86,SW,220,1.0,3.0,58,0.00,,,0.00,0,Wunderground v.1.15,2013-09-01 05:14:00,
2013-08-31 23:20:00,55.7,41.1,29.86,SW,217,3.0,3.0,58,0.00,,,0.00,0,Wunderground v.1.15,2013-09-01 05:20:00,
2013-08-31 23:26:00,55.1,40.6,29.86,SW,218,3.0,3.0,58,0.00,,,0.00,0,Wunderground v.1.15,2013-09-01 05:26:00,
2013-08-31 23:32:00,54.6,40.1,29.86,SW,218,2.0,2.0,58,0.00,,,0.00,0,Wunderground v.1.15,2013-09-01 05:32:00,
2013-08-31 23:38:00,54.2,40.2,29.86,SW,231,2.0,4.0,59,0.00,,,0.00,0,Wunderground v.1.15,2013-09-01 05:38:00,
2013-08-31 23:44:00,53.8,39.8,29.86,SW,222,2.0,3.0,59,0.00,,,0.00,0,Wunderground v.1.15,2013-09-01 05:44:00,
2013-08-31 23:50:00,53.5,40.4,29.86,SW,235,2.0,4.0,61,0.00,,,0.00,0,Wunderground v.1.15,2013-09-01 05:50:00,
2013-08-31 23:56:00,53.1,40.8,29.86,WSW,244,4.0,5.0,63,0.00,,,0.00,0,Wunderground v.1.15,2013-09-01 05:56:00,